Kezdőlap
METAR-TAF:

METAR-TAF

Repülőterek :

New Bedford, Massachusetts, Amerikai Egyesült Államok

földrajzi szélesség: 41-40-31N, földrajzi hosszúság: 070-57-25W, magasság: 24 m

Jelenlegi meteorológiai megfigyelések

A jelentés 41 perccel ezelõtt készült, 07:18 UTC
Szélcsend
Hőmérséklet 13°C
Páratartalom 100%
Légköri nyomás 1022 hPa
Látótávolság: 9.7 km
Szakadozott felhőzet 900 lábon
Borult 2500 lábon
Párásság

METAR: KEWB 260718Z AUTO 00000KT 6SM BR BKN009 OVC025 13/13 A3019 RMK AO2 T01330133

Idő: 03:59 (07:59 UTC)


TAF: hiányzik

Meteorológiai megfigyelések és előrejelzések több, mint 4000 repülőtéren (METAR és TAF jelentéseket).

A térképen piros és sárga pontok jelzik az elérhető meteorológiai állomásokat.

Mozgassa az egeret a pont fölött, hogy megjelenjen az állomás neve.

Azután kattintson az időjárási megfigyelések és előrejelzések megtekintéséhez.

A térkép megváltoztatása: kattintson a fekete keresztel jelölt zöld gombra ráközelítéshez, a vonallal jelölt zöld gombra távolításhoz, vagy a zöld nyilakra a szomszédos térképek eléréséhez.


METAR-TAF: